Time;durP1;ratioP1;P1;durP2;ratioP2;P2;SDS_P1;SDS_P2;PMS_P1;PMS_P2;Temp;Humidity;BMP_temperature;BMP_pressure;BME280_temperature;BME280_humidity;BME280_pressure;Samples;Min_cycle;Max_cycle;Signal;HPM_P1;HPM_P2
2020/12/29 00:00:59;;;;;;;2.92;0.85;;;8.50;99.90;;;;;;5035069;28;20131;-68
2020/12/29 00:03:26;;;;;;;3.45;1.15;;;8.50;99.90;;;;;;5031449;28;20051;-68
2020/12/29 00:05:53;;;;;;;2.30;0.75;;;8.50;99.90;;;;;;5047649;28;20083;-68
2020/12/29 00:08:19;;;;;;;7.03;1.35;;;8.60;99.90;;;;;;5046715;28;20036;-68
2020/12/29 00:10:46;;;;;;;3.25;1.05;;;8.60;99.90;;;;;;5060458;28;20064;-68
2020/12/29 00:13:12;;;;;;;3.80;0.93;;;8.60;99.90;;;;;;5052168;28;20049;-68
2020/12/29 00:15:41;;;;;;;4.75;1.08;;;8.60;99.90;;;;;;5049279;28;20147;-67
2020/12/29 00:18:07;;;;;;;3.28;0.85;;;8.70;99.90;;;;;;5050412;28;20491;-67
2020/12/29 00:20:34;;;;;;;4.00;1.40;;;8.70;99.90;;;;;;5049980;28;20407;-67
2020/12/29 00:23:00;;;;;;;3.88;1.42;;;8.70;99.90;;;;;;5040633;28;20052;-67
2020/12/29 00:25:27;;;;;;;2.28;0.98;;;8.70;99.90;;;;;;5049096;28;20071;-67
2020/12/29 00:27:53;;;;;;;3.10;1.10;;;8.80;99.90;;;;;;5050144;28;20098;-67
2020/12/29 00:30:20;;;;;;;3.58;0.85;;;8.80;99.90;;;;;;5048024;28;20056;-67
2020/12/29 00:32:46;;;;;;;3.40;1.15;;;8.80;99.90;;;;;;5049627;28;20150;-67
2020/12/29 00:35:13;;;;;;;3.60;1.08;;;8.80;99.90;;;;;;5037770;28;20053;-66
2020/12/29 00:37:39;;;;;;;3.25;1.35;;;8.70;99.90;;;;;;5034538;28;20103;-66
2020/12/29 00:40:06;;;;;;;3.00;0.95;;;8.70;99.90;;;;;;5045276;28;20087;-67
2020/12/29 00:42:33;;;;;;;4.13;1.38;;;8.70;99.90;;;;;;5035447;28;20037;-67
2020/12/29 00:45:00;;;;;;;4.82;1.40;;;8.70;99.90;;;;;;5028558;28;20045;-67
2020/12/29 00:47:27;;;;;;;3.67;1.20;;;8.60;99.90;;;;;;5043685;28;20041;-67
2020/12/29 00:49:53;;;;;;;2.75;0.98;;;8.70;99.90;;;;;;5051598;28;20041;-67
2020/12/29 00:52:20;;;;;;;3.85;1.60;;;8.70;99.90;;;;;;5041514;28;20052;-67
2020/12/29 00:54:58;;;;;;;3.17;1.13;;;8.70;99.90;;;;;;5045781;28;20164;-67
2020/12/29 00:57:36;;;;;;;4.53;1.13;;;8.70;99.90;;;;;;5035934;28;20861;-67
2020/12/29 01:00:06;;;;;;;3.17;0.90;;;8.70;99.90;;;;;;5040426;28;20055;-67
2020/12/29 01:02:50;;;;;;;3.13;1.15;;;8.70;99.90;;;;;;5029680;28;20033;-67
2020/12/29 01:05:19;;;;;;;6.32;1.33;;;8.70;99.90;;;;;;5043754;28;20049;-67
2020/12/29 01:07:46;;;;;;;4.72;1.00;;;8.80;99.90;;;;;;5032539;28;20702;-67
2020/12/29 01:10:12;;;;;;;2.53;0.90;;;8.80;99.90;;;;;;5048096;28;20437;-66
2020/12/29 01:12:59;;;;;;;3.75;1.52;;;8.80;99.90;;;;;;5040375;28;20081;-66
2020/12/29 01:15:26;;;;;;;4.15;1.30;;;8.80;99.90;;;;;;5046510;28;20115;-65
2020/12/29 01:18:02;;;;;;;4.90;1.38;;;8.70;99.90;;;;;;5048877;28;20067;-65
2020/12/29 01:20:29;;;;;;;2.85;1.00;;;8.70;99.90;;;;;;5046849;28;20041;-64
2020/12/29 01:22:56;;;;;;;4.60;1.17;;;8.70;99.90;;;;;;5025818;28;20037;-64
2020/12/29 01:25:23;;;;;;;4.15;0.90;;;8.70;99.90;;;;;;5040027;28;20468;-64
2020/12/29 01:27:50;;;;;;;4.07;0.95;;;8.70;99.90;;;;;;5049909;28;20030;-63
2020/12/29 01:30:17;;;;;;;2.63;0.95;;;8.60;99.90;;;;;;5049841;28;20037;-63
2020/12/29 01:32:44;;;;;;;5.03;1.50;;;8.60;99.90;;;;;;5037145;28;20049;-63
2020/12/29 01:35:11;;;;;;;4.18;1.10;;;8.60;99.90;;;;;;5045566;28;20045;-63
2020/12/29 01:37:41;;;;;;;2.70;0.85;;;8.50;99.90;;;;;;5044264;28;20550;-63
2020/12/29 01:40:09;;;;;;;6.10;1.50;;;8.50;99.90;;;;;;5040841;28;20037;-63
2020/12/29 01:42:37;;;;;;;5.05;0.88;;;8.50;99.90;;;;;;5037734;28;20060;-63
2020/12/29 01:45:13;;;;;;;3.83;1.38;;;8.40;99.90;;;;;;5046632;28;20450;-63
2020/12/29 01:47:41;;;;;;;4.35;1.70;;;8.40;99.90;;;;;;5043565;28;20369;-63
2020/12/29 01:50:14;;;;;;;4.43;1.42;;;8.30;99.90;;;;;;5044850;28;20029;-63
2020/12/29 01:52:41;;;;;;;5.60;1.83;;;8.30;99.90;;;;;;5036551;28;20034;-63
2020/12/29 01:55:09;;;;;;;3.42;1.13;;;8.20;99.90;;;;;;5045527;28;20087;-63
2020/12/29 01:57:37;;;;;;;5.50;1.40;;;8.20;99.90;;;;;;5046517;28;20064;-63
2020/12/29 02:00:08;;;;;;;4.43;1.70;;;8.20;99.90;;;;;;5038057;28;20385;-63
2020/12/29 02:02:41;;;;;;;3.05;1.20;;;8.10;99.90;;;;;;5045857;28;20146;-63
2020/12/29 02:05:09;;;;;;;3.72;1.23;;;8.10;99.90;;;;;;5048293;28;20041;-63
2020/12/29 02:07:36;;;;;;;4.22;1.35;;;8.10;99.90;;;;;;5043029;28;20060;-63
2020/12/29 02:10:03;;;;;;;2.47;1.08;;;8.10;99.90;;;;;;5051099;28;20061;-63
2020/12/29 02:12:35;;;;;;;4.75;1.45;;;8.10;99.90;;;;;;5047956;28;20120;-63
2020/12/29 02:15:05;;;;;;;3.73;1.07;;;8.00;99.90;;;;;;5041302;28;20482;-62
2020/12/29 02:17:32;;;;;;;4.88;1.70;;;8.10;99.90;;;;;;5037679;28;20293;-62
2020/12/29 02:20:00;;;;;;;3.97;1.48;;;8.00;99.90;;;;;;5043113;28;20048;-62
2020/12/29 02:22:28;;;;;;;5.32;1.58;;;8.00;99.90;;;;;;5048551;28;20044;-62
2020/12/29 02:25:00;;;;;;;4.03;1.23;;;8.00;99.90;;;;;;5032510;28;20103;-62
2020/12/29 02:27:29;;;;;;;3.90;1.17;;;7.90;99.90;;;;;;5034909;28;20491;-62
2020/12/29 02:29:56;;;;;;;3.05;1.20;;;8.00;99.90;;;;;;5039884;28;20278;-62
2020/12/29 02:32:24;;;;;;;3.67;1.10;;;7.90;99.90;;;;;;5045357;28;20040;-62
2020/12/29 02:34:51;;;;;;;4.78;1.10;;;7.90;99.90;;;;;;5041409;28;20084;-62
2020/12/29 02:37:19;;;;;;;4.10;1.50;;;7.90;99.90;;;;;;5046336;28;20041;-62
2020/12/29 02:39:50;;;;;;;2.67;1.02;;;7.80;99.90;;;;;;5046886;28;20063;-62
2020/12/29 02:42:17;;;;;;;3.50;0.80;;;7.80;99.90;;;;;;5044858;28;20040;-62
2020/12/29 02:44:44;;;;;;;5.15;1.25;;;7.80;99.90;;;;;;5048931;28;20381;-62
2020/12/29 02:47:10;;;;;;;2.22;0.73;;;7.70;99.90;;;;;;5045997;28;20052;-62
2020/12/29 02:49:37;;;;;;;6.07;1.00;;;7.70;99.90;;;;;;5029844;28;20042;-62
2020/12/29 02:52:04;;;;;;;3.40;0.82;;;7.70;99.90;;;;;;5045092;28;20045;-62
2020/12/29 02:54:31;;;;;;;3.42;0.45;;;7.70;99.90;;;;;;5044498;28;20377;-63
2020/12/29 02:56:58;;;;;;;1.38;0.43;;;7.70;99.90;;;;;;5033467;28;20072;-62
2020/12/29 02:59:27;;;;;;;1.15;0.40;;;7.60;99.90;;;;;;5041505;28;20134;-62
2020/12/29 03:01:54;;;;;;;5.25;0.60;;;7.60;99.90;;;;;;5043291;28;20046;-62
2020/12/29 03:04:21;;;;;;;2.35;0.47;;;7.60;99.90;;;;;;5028392;28;20057;-62
2020/12/29 03:06:47;;;;;;;2.42;0.35;;;7.60;99.90;;;;;;5043484;28;20041;-62
2020/12/29 03:09:15;;;;;;;1.55;0.52;;;7.50;99.90;;;;;;5036544;28;20636;-62
2020/12/29 03:11:42;;;;;;;2.10;0.40;;;7.40;99.90;;;;;;5037875;28;20103;-62
2020/12/29 03:14:09;;;;;;;1.42;0.35;;;7.40;99.90;;;;;;5048307;28;20045;-62
2020/12/29 03:16:36;;;;;;;1.63;0.32;;;7.40;99.90;;;;;;5039543;28;20048;-62
2020/12/29 03:19:20;;;;;;;1.30;0.30;;;7.30;99.90;;;;;;5032572;28;20049;-62
2020/12/29 03:21:48;;;;;;;1.83;0.28;;;7.30;99.90;;;;;;5039803;28;20048;-62
2020/12/29 03:24:14;;;;;;;2.95;0.90;;;7.20;99.90;;;;;;5048379;28;20060;-62
2020/12/29 03:26:41;;;;;;;1.75;0.40;;;7.20;99.90;;;;;;5044377;28;20041;-62
2020/12/29 03:29:08;;;;;;;2.85;1.23;;;7.10;99.90;;;;;;5044185;28;20041;-62
2020/12/29 03:31:36;;;;;;;1.15;0.30;;;7.20;99.90;;;;;;5033404;28;20847;-62
2020/12/29 03:34:02;;;;;;;0.73;0.20;;;7.20;99.90;;;;;;5019861;28;20041;-62
2020/12/29 03:36:29;;;;;;;0.98;0.20;;;7.20;99.90;;;;;;5050793;28;20049;-62
2020/12/29 03:38:55;;;;;;;0.45;0.10;;;7.10;99.90;;;;;;5041146;28;20760;-62
2020/12/29 03:41:22;;;;;;;1.50;0.20;;;7.10;99.90;;;;;;5045108;28;20045;-62
2020/12/29 03:43:48;;;;;;;0.50;0.10;;;7.20;99.90;;;;;;5049949;28;20041;-62
2020/12/29 03:46:15;;;;;;;1.10;0.20;;;7.10;99.90;;;;;;5042859;28;20047;-62
2020/12/29 03:48:41;;;;;;;2.05;0.30;;;7.10;99.90;;;;;;5046190;28;20131;-62
2020/12/29 03:51:08;;;;;;;1.05;0.28;;;7.10;99.90;;;;;;5052779;28;20056;-62
2020/12/29 03:53:34;;;;;;;1.38;0.20;;;7.00;99.90;;;;;;5039612;28;20040;-62
2020/12/29 03:56:01;;;;;;;0.80;0.25;;;7.00;99.90;;;;;;5044160;28;20637;-62
2020/12/29 03:58:28;;;;;;;0.82;0.20;;;7.00;99.90;;;;;;5043553;28;20044;-62
2020/12/29 04:00:54;;;;;;;1.45;0.10;;;6.90;99.90;;;;;;5055341;28;20114;-62
2020/12/29 04:03:21;;;;;;;0.63;0.10;;;6.90;99.90;;;;;;5043584;28;20045;-62
2020/12/29 04:05:47;;;;;;;0.40;0.10;;;6.90;99.90;;;;;;5044847;28;20045;-61
2020/12/29 04:08:14;;;;;;;0.52;0.00;;;6.90;99.90;;;;;;5050680;28;20037;-61
2020/12/29 04:10:40;;;;;;;0.40;0.10;;;6.90;99.90;;;;;;5044805;28;20045;-61
2020/12/29 04:13:07;;;;;;;1.45;0.00;;;6.90;99.90;;;;;;5039600;28;20045;-61
2020/12/29 04:15:33;;;;;;;0.30;0.10;;;6.90;99.90;;;;;;5047679;28;20438;-61
2020/12/29 04:18:00;;;;;;;1.35;0.00;;;6.80;99.90;;;;;;5045251;28;20135;-61
2020/12/29 04:20:26;;;;;;;0.15;0.00;;;6.80;99.90;;;;;;5043329;28;20045;-61
2020/12/29 04:22:53;;;;;;;0.60;0.10;;;6.70;99.90;;;;;;5036876;28;20096;-61
2020/12/29 04:25:19;;;;;;;0.10;0.00;;;6.70;99.90;;;;;;5043024;28;20065;-61
2020/12/29 04:27:46;;;;;;;0.40;0.00;;;6.70;99.90;;;;;;5046399;28;20095;-61
2020/12/29 04:30:12;;;;;;;0.52;0.00;;;6.70;99.90;;;;;;5038953;28;20041;-61
2020/12/29 04:32:40;;;;;;;0.45;0.00;;;6.60;99.90;;;;;;5066958;28;20464;-61
2020/12/29 04:35:07;;;;;;;0.40;0.10;;;6.60;99.90;;;;;;5043774;28;20052;-61
2020/12/29 04:37:35;;;;;;;1.50;0.20;;;6.60;99.90;;;;;;5041781;28;20484;-61
2020/12/29 04:40:04;;;;;;;0.00;0.00;;;6.50;99.90;;;;;;5046074;28;20046;-61
2020/12/29 04:42:32;;;;;;;0.40;0.00;;;6.50;99.90;;;;;;5036701;28;20049;-61
2020/12/29 04:44:58;;;;;;;0.10;0.00;;;6.50;99.90;;;;;;5048800;28;20493;-61
2020/12/29 04:47:28;;;;;;;0.85;0.00;;;6.50;99.90;;;;;;5049026;28;20041;-61
2020/12/29 04:49:58;;;;;;;0.65;0.10;;;6.50;99.90;;;;;;5045806;28;20053;-61
2020/12/29 04:52:29;;;;;;;0.20;0.00;;;6.40;99.90;;;;;;5038287;28;20052;-62
2020/12/29 04:54:57;;;;;;;1.00;0.00;;;6.40;99.90;;;;;;5047966;28;20057;-62
2020/12/29 04:57:24;;;;;;;0.90;0.00;;;6.30;99.90;;;;;;5049326;28;20045;-61
2020/12/29 04:59:53;;;;;;;1.70;0.00;;;6.30;99.90;;;;;;5042840;28;20048;-61
2020/12/29 05:02:20;;;;;;;0.17;0.00;;;6.30;99.90;;;;;;5049423;28;20049;-61
2020/12/29 05:04:46;;;;;;;0.63;0.00;;;6.30;99.90;;;;;;5040498;28;20045;-61
2020/12/29 05:07:13;;;;;;;0.20;0.00;;;6.30;99.90;;;;;;5028170;28;20045;-61
2020/12/29 05:09:42;;;;;;;0.08;0.00;;;6.30;99.90;;;;;;5051297;28;20141;-61
2020/12/29 05:12:09;;;;;;;0.40;0.00;;;6.20;99.90;;;;;;5043014;28;20033;-61
2020/12/29 05:14:37;;;;;;;0.60;0.00;;;6.30;99.90;;;;;;5041220;28;20034;-61
2020/12/29 05:17:03;;;;;;;0.40;0.00;;;6.20;99.90;;;;;;5045831;28;20057;-61
2020/12/29 05:19:33;;;;;;;0.35;0.05;;;6.20;99.90;;;;;;5041113;28;20037;-61
2020/12/29 05:21:59;;;;;;;0.70;0.00;;;6.20;99.90;;;;;;5040628;28;20122;-61
2020/12/29 05:24:26;;;;;;;0.65;0.10;;;6.20;99.90;;;;;;5050709;28;20053;-61
2020/12/29 05:26:57;;;;;;;1.23;0.30;;;6.20;99.90;;;;;;5034415;28;20047;-61
2020/12/29 05:29:25;;;;;;;0.50;0.10;;;6.20;99.90;;;;;;5047766;28;20037;-61
2020/12/29 05:31:52;;;;;;;1.52;0.10;;;6.20;99.90;;;;;;5049278;28;20484;-61
2020/12/29 05:34:21;;;;;;;1.05;0.10;;;6.20;99.90;;;;;;5038556;28;20052;-61
2020/12/29 05:36:49;;;;;;;0.30;0.10;;;6.10;99.90;;;;;;5040698;28;20053;-61
2020/12/29 05:39:23;;;;;;;1.38;0.10;;;6.10;99.90;;;;;;5039348;28;20112;-61
2020/12/29 05:41:52;;;;;;;0.45;0.10;;;6.10;99.90;;;;;;5044508;28;20048;-63
2020/12/29 05:44:28;;;;;;;1.77;0.10;;;6.00;99.90;;;;;;5041215;28;20096;-63
2020/12/29 05:47:03;;;;;;;0.95;0.10;;;6.00;99.90;;;;;;5048849;28;20048;-63
2020/12/29 05:49:32;;;;;;;1.20;0.10;;;6.00;99.90;;;;;;5045566;28;20404;-63
2020/12/29 05:51:59;;;;;;;0.17;0.00;;;6.00;99.90;;;;;;5045678;28;20119;-63
2020/12/29 05:54:27;;;;;;;4.88;1.23;;;6.00;99.90;;;;;;5043225;28;20044;-63
2020/12/29 05:56:54;;;;;;;0.80;0.10;;;6.00;99.90;;;;;;5031410;28;20037;-63
2020/12/29 05:59:21;;;;;;;0.55;0.22;;;5.90;99.90;;;;;;5045238;28;20060;-63
2020/12/29 06:01:50;;;;;;;0.73;0.10;;;5.90;99.90;;;;;;5039784;28;20601;-63
2020/12/29 06:04:18;;;;;;;6.47;0.30;;;6.00;99.90;;;;;;5063712;28;20040;-63
2020/12/29 06:06:49;;;;;;;2.75;0.38;;;6.00;99.90;;;;;;5050361;28;20407;-63
2020/12/29 06:09:20;;;;;;;0.90;0.20;;;6.00;99.90;;;;;;5050768;28;20041;-63
2020/12/29 06:11:49;;;;;;;0.40;0.10;;;6.00;99.90;;;;;;5048774;28;20052;-63
2020/12/29 06:14:17;;;;;;;0.47;0.17;;;6.00;99.90;;;;;;5048102;28;20048;-63
2020/12/29 06:16:45;;;;;;;0.63;0.10;;;6.00;99.90;;;;;;5036189;28;20040;-63
2020/12/29 06:19:23;;;;;;;0.35;0.10;;;6.00;99.90;;;;;;5047693;28;20057;-61
2020/12/29 06:22:04;;;;;;;1.02;0.30;;;5.90;99.90;;;;;;5041180;28;20194;-61
2020/12/29 06:24:40;;;;;;;1.90;0.40;;;5.80;99.90;;;;;;5037640;28;20490;-61
2020/12/29 06:27:08;;;;;;;0.75;0.32;;;5.70;99.90;;;;;;5038491;28;20038;-61
2020/12/29 06:29:42;;;;;;;1.55;0.30;;;5.70;99.90;;;;;;5043355;28;20095;-61
2020/12/29 06:32:14;;;;;;;2.63;0.52;;;5.60;99.90;;;;;;5046761;28;20048;-61
2020/12/29 06:34:46;;;;;;;1.58;0.30;;;5.50;99.90;;;;;;5048667;28;20057;-61
2020/12/29 06:37:37;;;;;;;1.90;0.20;;;5.50;99.90;;;;;;5047221;28;20052;-61
2020/12/29 06:40:06;;;;;;;0.90;0.20;;;5.40;99.90;;;;;;5045907;28;20049;-61
2020/12/29 06:42:38;;;;;;;2.15;0.50;;;5.40;99.90;;;;;;5030539;28;20057;-61
2020/12/29 06:45:07;;;;;;;1.08;0.20;;;5.30;99.90;;;;;;5031874;28;20038;-61
2020/12/29 06:47:37;;;;;;;1.90;0.40;;;5.30;99.90;;;;;;5035933;28;20408;-61
2020/12/29 06:50:26;;;;;;;1.42;0.13;;;5.30;99.90;;;;;;5060801;28;20033;-61
2020/12/29 06:53:04;;;;;;;1.00;0.25;;;5.20;99.90;;;;;;5038115;28;20104;-61
2020/12/29 06:55:47;;;;;;;3.53;0.73;;;5.30;99.90;;;;;;5048858;28;20504;-61
2020/12/29 06:58:33;;;;;;;2.53;0.50;;;5.20;99.90;;;;;;5024865;28;20041;-61
2020/12/29 07:01:22;;;;;;;2.33;0.57;;;5.20;99.90;;;;;;5045455;28;20053;-61
2020/12/29 07:04:07;;;;;;;1.48;0.85;;;5.20;99.90;;;;;;5046484;28;20678;-61
2020/12/29 07:06:36;;;;;;;6.25;1.98;;;5.20;99.90;;;;;;5043025;28;20041;-61
2020/12/29 07:09:09;;;;;;;9.45;3.72;;;5.30;99.90;;;;;;5039077;28;20044;-61
2020/12/29 07:11:36;;;;;;;4.03;1.33;;;5.40;99.90;;;;;;5047535;28;20111;-61
2020/12/29 07:14:05;;;;;;;6.00;1.48;;;5.40;99.90;;;;;;5046386;28;20037;-62
2020/12/29 07:16:34;;;;;;;4.97;0.57;;;5.40;99.90;;;;;;5052843;28;20037;-62
2020/12/29 07:19:11;;;;;;;2.00;0.25;;;5.50;99.90;;;;;;5037780;28;20045;-62
2020/12/29 07:21:38;;;;;;;1.45;0.20;;;5.50;99.90;;;;;;5036016;28;20056;-61
2020/12/29 07:24:06;;;;;;;0.85;0.30;;;5.60;99.90;;;;;;5046008;28;20049;-61
2020/12/29 07:26:37;;;;;;;2.28;0.47;;;5.60;99.90;;;;;;5038560;28;20077;-62
2020/12/29 07:29:06;;;;;;;2.53;0.20;;;5.70;99.90;;;;;;5036098;28;20059;-61
2020/12/29 07:31:39;;;;;;;2.05;0.50;;;5.70;99.90;;;;;;5045873;28;20041;-62
2020/12/29 07:34:15;;;;;;;1.17;0.20;;;5.70;99.90;;;;;;5045964;28;21570;-61
2020/12/29 07:36:46;;;;;;;1.92;0.32;;;5.80;99.90;;;;;;5048439;28;20049;-61
2020/12/29 07:39:17;;;;;;;3.90;0.43;;;5.90;99.90;;;;;;5050233;28;20052;-61
2020/12/29 07:41:44;;;;;;;3.15;0.98;;;6.00;99.90;;;;;;5042745;28;20081;-61
2020/12/29 07:44:11;;;;;;;11.30;1.92;;;6.10;99.90;;;;;;5039879;28;20037;-61
2020/12/29 07:46:38;;;;;;;19.92;6.85;;;6.20;99.90;;;;;;5060147;28;20075;-61
2020/12/29 07:49:04;;;;;;;37.38;12.43;;;6.30;99.90;;;;;;5044063;28;20116;-61
2020/12/29 07:51:45;;;;;;;17.70;5.88;;;6.30;99.90;;;;;;5043336;28;20095;-61
2020/12/29 07:54:12;;;;;;;7.18;1.92;;;6.50;99.90;;;;;;5036539;28;20597;-61
2020/12/29 07:56:39;;;;;;;3.47;1.05;;;6.50;99.90;;;;;;5041276;28;20073;-61
2020/12/29 07:59:10;;;;;;;2.45;0.35;;;6.60;99.90;;;;;;5015739;28;20050;-61
2020/12/29 08:01:56;;;;;;;2.33;0.57;;;6.80;99.90;;;;;;5045894;28;20042;-61
2020/12/29 08:04:25;;;;;;;4.28;1.08;;;6.80;99.90;;;;;;5033990;28;20407;-61
2020/12/29 08:06:51;;;;;;;2.22;0.93;;;7.00;99.90;;;;;;5028644;28;20559;-60
2020/12/29 08:09:18;;;;;;;2.90;0.50;;;7.00;99.90;;;;;;5041908;28;20694;-61
2020/12/29 08:11:45;;;;;;;3.10;0.68;;;7.10;99.90;;;;;;5047673;28;20033;-61
2020/12/29 08:14:12;;;;;;;2.78;0.68;;;7.10;99.90;;;;;;5053458;28;20442;-60
2020/12/29 08:16:38;;;;;;;1.95;0.50;;;7.20;99.90;;;;;;5021828;28;20067;-61
2020/12/29 08:19:09;;;;;;;2.28;0.57;;;7.30;99.90;;;;;;5048225;28;20103;-60
2020/12/29 08:21:39;;;;;;;1.55;0.35;;;7.30;99.90;;;;;;5049582;28;20510;-60
2020/12/29 08:24:06;;;;;;;2.50;0.38;;;7.30;99.90;;;;;;5031110;28;20053;-60
2020/12/29 08:26:34;;;;;;;2.47;0.30;;;7.40;99.90;;;;;;5048259;28;20132;-61
2020/12/29 08:29:03;;;;;;;0.80;0.10;;;7.50;99.90;;;;;;5053391;28;20452;-61
2020/12/29 08:31:31;;;;;;;1.98;0.10;;;7.50;99.90;;;;;;5041291;28;20524;-61
2020/12/29 08:33:59;;;;;;;0.90;0.20;;;7.50;99.90;;;;;;5041306;28;20060;-61
2020/12/29 08:36:27;;;;;;;0.82;0.10;;;7.60;99.90;;;;;;5039065;28;20052;-60
2020/12/29 08:39:05;;;;;;;1.00;0.20;;;7.60;99.90;;;;;;5043112;28;20041;-61
2020/12/29 08:41:41;;;;;;;0.63;0.10;;;7.70;99.90;;;;;;5033844;28;20438;-61
2020/12/29 08:44:08;;;;;;;0.20;0.00;;;7.90;99.90;;;;;;5058521;28;20052;-61
2020/12/29 08:46:36;;;;;;;1.52;0.20;;;7.90;99.90;;;;;;5048003;28;20041;-61
2020/12/29 08:49:05;;;;;;;0.82;0.10;;;8.00;99.90;;;;;;5046448;28;20396;-61
2020/12/29 08:51:40;;;;;;;1.33;0.47;;;8.00;99.90;;;;;;5039941;28;20041;-61
2020/12/29 08:54:17;;;;;;;0.82;0.15;;;8.20;99.90;;;;;;5037000;28;20091;-61
2020/12/29 08:56:45;;;;;;;0.55;0.13;;;8.40;99.90;;;;;;5038493;28;20148;-61
2020/12/29 08:59:22;;;;;;;1.95;0.17;;;8.60;99.90;;;;;;5040539;28;20395;-61
2020/12/29 09:01:56;;;;;;;2.42;0.20;;;8.70;99.90;;;;;;5047152;28;20053;-61
2020/12/29 09:04:37;;;;;;;1.83;0.28;;;8.80;99.90;;;;;;5026219;28;20044;-61
2020/12/29 09:07:04;;;;;;;1.05;0.15;;;9.00;99.90;;;;;;5032558;28;20045;-60
2020/12/29 09:09:51;;;;;;;1.45;0.40;;;9.10;99.90;;;;;;5037272;28;20041;-61
2020/12/29 09:12:20;;;;;;;0.70;0.03;;;9.20;99.90;;;;;;5038432;28;20036;-61
2020/12/29 09:14:53;;;;;;;1.60;0.17;;;9.40;99.90;;;;;;5027941;28;20095;-61
2020/12/29 09:17:21;;;;;;;0.93;0.22;;;9.50;99.90;;;;;;5040811;28;20082;-61
2020/12/29 09:20:14;;;;;;;1.95;0.20;;;9.50;99.90;;;;;;5040743;28;20052;-61
2020/12/29 09:23:07;;;;;;;2.23;0.50;;;9.50;99.60;;;;;;5058395;28;20050;-61
2020/12/29 09:25:44;;;;;;;;;;;9.60;99.40;;;;;;5052491;28;20313;-62
2020/12/29 09:28:30;;;;;;;2.83;0.20;;;9.50;99.50;;;;;;5037178;28;19929;-61
2020/12/29 09:31:05;;;;;;;2.70;0.22;;;9.40;99.90;;;;;;5026848;28;20052;-61
2020/12/29 09:33:33;;;;;;;3.55;0.30;;;9.50;99.90;;;;;;5039639;28;20036;-61
2020/12/29 09:36:02;;;;;;;2.75;0.43;;;9.40;99.90;;;;;;5041665;28;20053;-61
2020/12/29 09:38:31;;;;;;;2.55;0.30;;;9.30;99.80;;;;;;5043689;28;20052;-61
2020/12/29 09:40:59;;;;;;;2.25;0.32;;;9.20;99.90;;;;;;5038642;28;20809;-61
2020/12/29 09:43:26;;;;;;;2.40;0.40;;;9.00;99.90;;;;;;5038536;28;22060;-61
2020/12/29 09:45:57;;;;;;;3.55;0.77;;;8.90;99.90;;;;;;5036652;28;20503;-61
2020/12/29 09:48:23;;;;;;;13.32;5.82;;;8.80;99.90;;;;;;5031956;28;20075;-61
2020/12/29 09:50:50;;;;;;;5.43;2.42;;;8.70;99.90;;;;;;5037874;28;20234;-61
2020/12/29 09:53:16;;;;;;;1.88;0.50;;;8.70;99.90;;;;;;5036345;28;20083;-61
2020/12/29 09:55:43;;;;;;;7.68;3.75;;;8.60;99.90;;;;;;5038515;28;20063;-61
2020/12/29 09:58:10;;;;;;;5.43;1.20;;;8.60;99.90;;;;;;5025576;28;20048;-61
2020/12/29 10:00:37;;;;;;;4.50;2.00;;;8.50;99.90;;;;;;5035421;28;20056;-61
2020/12/29 10:03:05;;;;;;;6.00;3.00;;;8.40;99.90;;;;;;5033142;28;20516;-61
2020/12/29 10:05:32;;;;;;;11.32;4.15;;;8.40;99.90;;;;;;5045030;28;20041;-61
2020/12/29 10:07:59;;;;;;;9.13;2.05;;;8.50;99.90;;;;;;5043227;28;20041;-61
2020/12/29 10:10:25;;;;;;;6.63;2.25;;;8.50;99.90;;;;;;5037678;28;20037;-61
2020/12/29 10:12:52;;;;;;;4.38;0.73;;;8.50;99.90;;;;;;5041082;28;20484;-62
2020/12/29 10:15:19;;;;;;;13.18;4.10;;;8.60;99.90;;;;;;5020029;28;20797;-62
2020/12/29 10:17:45;;;;;;;23.73;5.85;;;8.60;99.90;;;;;;5033489;28;20773;-61
2020/12/29 10:20:12;;;;;;;11.63;3.22;;;8.60;99.90;;;;;;5028404;28;20049;-61
2020/12/29 10:22:38;;;;;;;8.20;3.58;;;8.70;99.90;;;;;;5034992;28;20060;-61
2020/12/29 10:25:05;;;;;;;7.05;3.35;;;8.80;99.90;;;;;;5027395;28;20072;-61
2020/12/29 10:27:32;;;;;;;7.78;2.30;;;8.90;99.90;;;;;;5046862;28;20037;-61
2020/12/29 10:29:59;;;;;;;20.85;3.65;;;9.00;99.90;;;;;;5047571;28;20052;-61
2020/12/29 10:32:26;;;;;;;6.75;1.95;;;9.10;99.90;;;;;;5042880;28;20043;-61
2020/12/29 10:34:52;;;;;;;5.70;0.98;;;9.20;99.90;;;;;;5033164;28;20056;-61
2020/12/29 10:37:19;;;;;;;5.55;1.33;;;9.30;99.90;;;;;;5039008;28;20044;-62
2020/12/29 10:39:45;;;;;;;4.60;0.70;;;9.40;99.90;;;;;;5043523;28;20053;-61
2020/12/29 10:42:12;;;;;;;2.55;0.57;;;9.60;99.90;;;;;;5041368;28;20531;-61
2020/12/29 10:44:38;;;;;;;2.03;0.22;;;9.90;99.90;;;;;;5037528;28;20053;-61
2020/12/29 10:47:05;;;;;;;6.18;0.98;;;10.40;98.50;;;;;;5037412;28;20069;-61
2020/12/29 10:49:32;;;;;;;5.93;1.38;;;11.10;96.80;;;;;;5032941;28;20516;-61
2020/12/29 10:51:58;;;;;;;4.88;0.88;;;11.60;94.30;;;;;;5040695;28;20458;-62
2020/12/29 10:54:25;;;;;;;2.35;0.40;;;12.00;92.60;;;;;;5039008;28;20107;-60
2020/12/29 10:56:52;;;;;;;3.92;0.45;;;12.30;90.40;;;;;;5041690;28;20049;-61
2020/12/29 10:59:18;;;;;;;2.35;0.30;;;12.60;90.50;;;;;;5055704;28;20053;-61
2020/12/29 11:01:45;;;;;;;5.70;0.63;;;12.80;86.30;;;;;;5016840;28;20413;-60
2020/12/29 11:04:11;;;;;;;10.10;3.17;;;12.80;84.50;;;;;;5037070;28;20695;-60
2020/12/29 11:06:38;;;;;;;12.18;1.98;;;13.10;83.10;;;;;;5042085;28;20116;-60
2020/12/29 11:09:05;;;;;;;1.92;0.50;;;13.40;80.40;;;;;;5060785;28;20041;-60
2020/12/29 11:11:32;;;;;;;0.80;0.20;;;13.50;79.30;;;;;;5059646;28;20518;-61
2020/12/29 11:13:59;;;;;;;1.80;0.22;;;13.80;79.30;;;;;;5023806;28;20759;-61
2020/12/29 11:16:25;;;;;;;3.85;1.23;;;14.10;77.90;;;;;;5039560;28;20033;-61
2020/12/29 11:18:52;;;;;;;1.30;0.45;;;14.40;76.20;;;;;;5037476;28;20048;-61
2020/12/29 11:21:20;;;;;;;4.03;1.48;;;14.30;74.20;;;;;;5037566;28;20048;-61
2020/12/29 11:23:47;;;;;;;4.95;1.05;;;14.10;75.10;;;;;;5038591;28;20045;-61
2020/12/29 11:26:20;;;;;;;4.55;0.45;;;14.00;74.90;;;;;;5043779;28;20048;-61
2020/12/29 11:28:47;;;;;;;5.88;0.85;;;13.60;74.70;;;;;;5043019;28;20120;-61
2020/12/29 11:31:19;;;;;;;6.75;1.00;;;13.20;76.70;;;;;;5048322;28;20047;-61
2020/12/29 11:33:47;;;;;;;11.43;2.70;;;13.00;76.80;;;;;;5036576;28;20045;-61
2020/12/29 11:36:19;;;;;;;9.05;3.00;;;13.10;77.00;;;;;;5037969;28;20696;-61
2020/12/29 11:38:46;;;;;;;6.95;2.20;;;13.40;76.80;;;;;;5039343;28;20041;-61
2020/12/29 11:41:13;;;;;;;17.52;4.07;;;13.80;75.70;;;;;;5024475;28;20056;-61
2020/12/29 11:43:41;;;;;;;11.07;2.75;;;14.20;73.60;;;;;;5044383;28;20048;-61
2020/12/29 11:46:08;;;;;;;5.78;1.08;;;14.50;72.00;;;;;;5040769;28;20041;-61
2020/12/29 11:48:35;;;;;;;3.10;0.57;;;14.70;71.30;;;;;;5039143;28;20160;-61
2020/12/29 11:51:03;;;;;;;3.47;0.38;;;14.90;71.20;;;;;;5038298;28;20048;-61
2020/12/29 11:53:32;;;;;;;3.35;0.20;;;14.90;70.00;;;;;;5024651;28;20087;-62
2020/12/29 11:55:58;;;;;;;2.22;0.30;;;15.00;69.10;;;;;;5043431;28;20094;-61
2020/12/29 11:58:26;;;;;;;9.23;2.42;;;15.00;68.20;;;;;;5043784;28;20746;-61
2020/12/29 12:00:53;;;;;;;2.53;0.40;;;14.80;69.00;;;;;;5031121;28;20049;-61
2020/12/29 12:03:24;;;;;;;6.35;0.75;;;14.80;69.50;;;;;;5046440;28;20044;-62
2020/12/29 12:05:51;;;;;;;3.28;0.70;;;15.10;68.40;;;;;;5046438;28;20047;-61
2020/12/29 12:08:17;;;;;;;2.80;0.40;;;14.70;67.70;;;;;;5049813;28;20048;-62
2020/12/29 12:10:44;;;;;;;1.30;0.22;;;14.60;68.00;;;;;;5050177;28;20052;-62
2020/12/29 12:13:10;;;;;;;7.35;1.02;;;14.50;67.30;;;;;;5042892;28;20670;-62
2020/12/29 12:15:56;;;;;;;9.27;2.72;;;14.60;67.50;;;;;;5042724;28;20515;-61
2020/12/29 12:18:41;;;;;;;5.10;1.30;;;14.90;67.00;;;;;;5030690;28;20126;-61
2020/12/29 12:21:07;;;;;;;5.55;2.13;;;14.80;66.60;;;;;;5048870;28;20049;-62
2020/12/29 12:23:34;;;;;;;5.38;0.70;;;14.50;67.30;;;;;;5036674;28;20079;-61
2020/12/29 12:26:01;;;;;;;2.22;0.47;;;14.30;69.20;;;;;;5039114;28;20088;-61
2020/12/29 12:28:27;;;;;;;7.10;1.30;;;13.80;70.50;;;;;;5045959;28;20041;-61
2020/12/29 12:30:54;;;;;;;3.20;0.40;;;13.40;70.90;;;;;;5028660;28;20049;-61
2020/12/29 12:33:21;;;;;;;9.25;2.08;;;13.50;72.50;;;;;;5047664;28;20048;-61
2020/12/29 12:35:49;;;;;;;5.32;1.23;;;14.10;70.70;;;;;;5043649;28;20456;-62
2020/12/29 12:38:15;;;;;;;13.70;4.43;;;14.40;68.20;;;;;;5036793;28;20650;-61
2020/12/29 12:40:42;;;;;;;10.95;3.33;;;14.10;67.90;;;;;;5048523;28;20533;-62
2020/12/29 12:43:09;;;;;;;19.60;5.50;;;13.80;69.10;;;;;;5046986;28;20047;-63
2020/12/29 12:45:35;;;;;;;27.30;7.53;;;13.50;70.10;;;;;;5050496;28;20051;-62
2020/12/29 12:48:02;;;;;;;10.70;2.88;;;13.30;70.30;;;;;;5042747;28;20041;-62
2020/12/29 12:50:29;;;;;;;34.28;10.93;;;13.20;70.80;;;;;;5044753;28;20520;-62
2020/12/29 12:52:56;;;;;;;9.95;3.40;;;13.20;71.30;;;;;;5047796;28;20032;-62
2020/12/29 12:55:23;;;;;;;3.47;1.00;;;13.10;71.80;;;;;;5032437;28;20064;-62
2020/12/29 12:57:50;;;;;;;6.82;0.17;;;13.00;72.10;;;;;;5047386;28;20044;-62
2020/12/29 13:00:18;;;;;;;2.22;0.10;;;13.00;71.50;;;;;;5041942;28;20033;-62
2020/12/29 13:02:44;;;;;;;4.95;0.30;;;13.10;71.00;;;;;;5040925;28;20045;-62
2020/12/29 13:05:11;;;;;;;1.88;0.10;;;13.20;70.30;;;;;;5038433;28;20052;-62